HTZA

Details ICAO HTZA (ZNZ)
Name Zanzibar Airport
Region Tanzania
Timezone Africa/Dar_es_Salaam (UTC+3.0)
Plans Departing 95
Arriving 172
Stats Elevation 54 ft / 16 m (AMSL)
Location -6.224530° 39.225200°
Runways 1
Magnetic Variation 1.804° W
Sunrise 2018-10-18 03:01:50 UTC / 2018-10-18 06:01:50 Local
Sunset 2018-10-18 15:17:02 UTC / 2018-10-18 18:17:02 Local
Advertisement - Login to hide

Runways

ID Width Length Bearing (true/mag) Surface Threshold Overrun Markings Lighting
18 148 ft / 45 m 9,969 ft / 3,039 m 174.31° / 176.12° ASPHALT 0 ft / 0 m 272 ft / 83 m APP EDGE THRESHOLD SALS REIL-OMNI
36 148 ft / 45 m 9,969 ft / 3,039 m 354.31° / 356.12° ASPHALT 0 ft / 0 m 171 ft / 52 m APP EDGE THRESHOLD SALS REIL-OMNI

Map

Weather


0- 5 10 15 20 25 30 35+ Temperature / °C

Clouds and Precipitation
Forecast for 2018-10-18 18:00 UTC. Updated 3 hours ago

Ground ~20,000 ft ~40,000 ft Winds

METAR

HTZA 181800Z 08005KT 9999 FEW020 26/25 Q1011 NOSIG

TAF

HTZA 181700Z 1818/1918 08010KT 9999 SCT018 BECMG 1820/1822 00000KT BECMG 1903/1905 06010KT BKN018 BECMG 1612/1914 SCT022

Frequencies

Tower 121.20 MHz Zanzibar Tower
Approach 121.20 MHz Zanzibar Approach
Warning: Do not use this data for real-world aviation or navigation. No guarantee of current accuracy is given.